Time;durP1;ratioP1;P1;durP2;ratioP2;P2;SDS_P1;SDS_P2;PMS_P1;PMS_P2;Temp;Humidity;BMP_temperature;BMP_pressure;BME280_temperature;BME280_humidity;BME280_pressure;Samples;Min_cycle;Max_cycle;Signal;HPM_P1;HPM_P2
2022/10/30 00:02:24;;;;;;;17.13;7.18;;;;;;;;;;5081304;28;20263;-68
2022/10/30 00:04:49;;;;;;;13.52;7.60;;;;;;;;;;5071824;28;20296;-68
2022/10/30 00:07:15;;;;;;;20.02;7.75;;;;;;;;;;5082055;28;20556;-68
2022/10/30 00:09:40;;;;;;;13.93;7.25;;;;;;;;;;5082461;28;20180;-68
2022/10/30 00:12:05;;;;;;;17.02;7.30;;;;;;;;;;5076850;28;20523;-68
2022/10/30 00:14:31;;;;;;;21.20;8.02;;;;;;;;;;5077516;28;20183;-68
2022/10/30 00:16:56;;;;;;;16.67;7.13;;;;;;;;;;5074588;28;20220;-67
2022/10/30 00:19:21;;;;;;;15.45;7.55;;;;;;;;;;5085760;28;20187;-67
2022/10/30 00:21:47;;;;;;;22.75;7.82;;;;;;;;;;5074646;28;20184;-67
2022/10/30 00:24:12;;;;;;;18.15;7.80;;;;;;;;;;5071510;28;20293;-67
2022/10/30 00:26:37;;;;;;;21.63;8.10;;;;;;;;;;5073887;28;20183;-68
2022/10/30 00:29:03;;;;;;;17.45;7.85;;;;;;;;;;5081925;28;20195;-67
2022/10/30 00:31:28;;;;;;;20.05;8.55;;;;;;;;;;5075817;28;20264;-67
2022/10/30 00:33:54;;;;;;;22.08;8.85;;;;;;;;;;5073849;28;20188;-67
2022/10/30 00:36:20;;;;;;;22.00;9.23;;;;;;;;;;5070188;28;20588;-68
2022/10/30 00:38:46;;;;;;;15.88;7.85;;;;;;;;;;5072231;28;20197;-68
2022/10/30 00:41:14;;;;;;;20.42;8.50;;;;;;;;;;5075544;28;20187;-68
2022/10/30 00:43:40;;;;;;;18.00;8.95;;;;;;;;;;5068525;28;20249;-68
2022/10/30 00:46:16;;;;;;;14.63;7.45;;;;;;;;;;5074294;28;20263;-68
2022/10/30 00:48:47;;;;;;;18.75;8.63;;;;;;;;;;5079864;28;20583;-68
2022/10/30 00:51:13;;;;;;;25.23;8.57;;;;;;;;;;5086880;28;20283;-68
2022/10/30 00:53:39;;;;;;;17.63;8.73;;;;;;;;;;5076489;28;20553;-68
2022/10/30 00:56:07;;;;;;;24.00;9.30;;;;;;;;;;5079970;28;20291;-69
2022/10/30 00:58:37;;;;;;;17.75;7.97;;;;;;;;;;5080500;28;20184;-68
2022/10/30 01:01:06;;;;;;;21.50;9.10;;;;;;;;;;5072640;28;20183;-68
2022/10/30 01:03:34;;;;;;;16.35;8.68;;;;;;;;;;5080537;28;20196;-68
2022/10/30 01:06:03;;;;;;;17.48;9.43;;;;;;;;;;5074371;28;20180;-68
2022/10/30 01:08:30;;;;;;;20.10;9.43;;;;;;;;;;5074205;28;20296;-68
2022/10/30 01:10:57;;;;;;;17.92;8.73;;;;;;;;;;5072966;28;20608;-68
2022/10/30 01:13:23;;;;;;;18.85;8.20;;;;;;;;;;5074246;28;20176;-68
2022/10/30 01:16:07;;;;;;;15.95;8.68;;;;;;;;;;5075472;28;20554;-68
2022/10/30 01:18:43;;;;;;;17.92;9.35;;;;;;;;;;5071338;28;20204;-67
2022/10/30 01:21:21;;;;;;;19.20;8.77;;;;;;;;;;5081867;28;20184;-68
2022/10/30 01:24:02;;;;;;;27.17;10.07;;;;;;;;;;5068185;28;20715;-68
2022/10/30 01:26:58;;;;;;;20.08;9.07;;;;;;;;;;5072275;28;20262;-68
2022/10/30 01:29:40;;;;;;;18.88;8.82;;;;;;;;;;5074058;28;20176;-67
2022/10/30 01:32:17;;;;;;;17.42;9.70;;;;;;;;;;5083803;28;20675;-68
2022/10/30 01:35:11;;;;;;;27.23;9.05;;;;;;;;;;5073486;28;20778;-68
2022/10/30 01:37:58;;;;;;;20.30;8.82;;;;;;;;;;5050659;28;20210;-68
2022/10/30 01:40:23;;;;;;;22.30;8.98;;;;;;;;;;5079454;28;20609;-68
2022/10/30 01:42:57;;;;;;;23.23;9.10;;;;;;;;;;5081872;28;20184;-68
2022/10/30 01:45:28;;;;;;;21.10;9.75;;;;;;;;;;5078711;28;20179;-67
2022/10/30 01:48:26;;;;;;;22.80;9.40;;;;;;;;;;5080815;28;20666;-67
2022/10/30 01:51:15;;;;;;;21.40;10.02;;;;;;;;;;5076078;28;20235;-67
2022/10/30 01:54:17;;;;;;;24.65;9.70;;;;;;;;;;5070461;28;20192;-66
2022/10/30 01:57:04;;;;;;;23.63;9.55;;;;;;;;;;5076688;28;20678;-66
2022/10/30 01:59:55;;;;;;;18.05;9.23;;;;;;;;;;5073509;28;20177;-66
2022/10/30 02:02:21;;;;;;;27.95;9.88;;;;;;;;;;5070814;28;20219;-67
2022/10/30 02:04:47;;;;;;;24.60;9.75;;;;;;;;;;5084048;28;20186;-67
2022/10/30 02:07:12;;;;;;;18.35;9.23;;;;;;;;;;5074454;28;20647;-66
2022/10/30 02:09:38;;;;;;;18.38;9.68;;;;;;;;;;5075559;28;20652;-66
2022/10/30 02:12:04;;;;;;;20.77;9.43;;;;;;;;;;5083001;28;20192;-66
2022/10/30 02:14:35;;;;;;;18.63;9.85;;;;;;;;;;5080124;28;20188;-67
2022/10/30 02:17:04;;;;;;;22.58;9.30;;;;;;;;;;5074030;28;20200;-67
2022/10/30 02:19:29;;;;;;;25.88;9.57;;;;;;;;;;5070375;28;20582;-66
2022/10/30 02:21:55;;;;;;;15.60;8.23;;;;;;;;;;5079518;28;20268;-67
2022/10/30 02:24:20;;;;;;;17.40;9.35;;;;;;;;;;5076145;28;20540;-66
2022/10/30 02:26:46;;;;;;;22.08;9.15;;;;;;;;;;5074566;28;20603;-67
2022/10/30 02:29:12;;;;;;;18.23;9.77;;;;;;;;;;5077839;28;20196;-67
2022/10/30 02:31:37;;;;;;;14.55;9.80;;;;;;;;;;5070985;28;20485;-67
2022/10/30 02:34:03;;;;;;;22.73;10.05;;;;;;;;;;5069467;28;20200;-66
2022/10/30 02:36:28;;;;;;;19.55;10.25;;;;;;;;;;5078440;28;20476;-66
2022/10/30 02:38:54;;;;;;;20.88;9.73;;;;;;;;;;5086745;28;20325;-67
2022/10/30 02:41:21;;;;;;;19.00;9.88;;;;;;;;;;5080929;28;20554;-66
2022/10/30 02:43:47;;;;;;;20.40;9.90;;;;;;;;;;5074861;28;20858;-67
2022/10/30 02:46:12;;;;;;;18.25;9.80;;;;;;;;;;5079713;28;20197;-66
2022/10/30 02:48:37;;;;;;;25.45;10.68;;;;;;;;;;5082973;28;20192;-66
2022/10/30 02:51:03;;;;;;;22.98;10.75;;;;;;;;;;5088366;28;20292;-66
2022/10/30 02:53:30;;;;;;;22.25;10.02;;;;;;;;;;5085417;28;20187;-66
2022/10/30 02:55:55;;;;;;;21.52;10.43;;;;;;;;;;5078211;28;20287;-66
2022/10/30 02:58:21;;;;;;;19.42;10.25;;;;;;;;;;5084217;28;20322;-66
2022/10/30 03:00:46;;;;;;;23.77;11.50;;;;;;;;;;5077854;28;20188;-66
2022/10/30 03:03:12;;;;;;;17.58;10.13;;;;;;;;;;5088274;28;20194;-66
2022/10/30 03:05:37;;;;;;;24.67;11.27;;;;;;;;;;5082236;28;20233;-66
2022/10/30 03:08:03;;;;;;;20.33;11.43;;;;;;;;;;5076882;28;20192;-66
2022/10/30 03:10:28;;;;;;;23.17;10.75;;;;;;;;;;5086245;28;20284;-67
2022/10/30 03:12:53;;;;;;;27.35;11.80;;;;;;;;;;5090867;28;20188;-67
2022/10/30 03:15:19;;;;;;;18.75;10.90;;;;;;;;;;5077827;28;20257;-66
2022/10/30 03:17:44;;;;;;;16.90;10.50;;;;;;;;;;5083075;28;20183;-67
2022/10/30 03:20:10;;;;;;;23.60;11.30;;;;;;;;;;5079712;28;20233;-67
2022/10/30 03:22:36;;;;;;;23.60;10.60;;;;;;;;;;5085692;28;20419;-66
2022/10/30 03:25:01;;;;;;;26.08;11.55;;;;;;;;;;5070816;28;20541;-67
2022/10/30 03:27:26;;;;;;;21.30;11.57;;;;;;;;;;5077467;28;20585;-66
2022/10/30 03:29:52;;;;;;;23.73;11.02;;;;;;;;;;5071881;28;20198;-66
2022/10/30 03:32:17;;;;;;;25.08;10.73;;;;;;;;;;5075090;28;20319;-66
2022/10/30 03:34:42;;;;;;;26.67;10.85;;;;;;;;;;5083472;28;20172;-66
2022/10/30 03:37:08;;;;;;;21.10;10.48;;;;;;;;;;5079774;28;20291;-66
2022/10/30 03:39:33;;;;;;;22.70;10.40;;;;;;;;;;5079068;28;20541;-66
2022/10/30 03:41:58;;;;;;;19.08;10.65;;;;;;;;;;5089864;28;20542;-66
2022/10/30 03:44:24;;;;;;;25.23;10.95;;;;;;;;;;5089239;28;20187;-66
2022/10/30 03:46:49;;;;;;;20.23;11.85;;;;;;;;;;5074187;28;20176;-66
2022/10/30 03:49:14;;;;;;;28.20;11.85;;;;;;;;;;5071505;28;20234;-66
2022/10/30 03:51:39;;;;;;;23.65;11.07;;;;;;;;;;5083111;28;20185;-66
2022/10/30 03:54:05;;;;;;;16.83;10.85;;;;;;;;;;5078714;28;20188;-66
2022/10/30 03:56:30;;;;;;;23.13;11.32;;;;;;;;;;5072579;28;20208;-66
2022/10/30 03:58:55;;;;;;;22.42;11.93;;;;;;;;;;5078009;28;20180;-66
2022/10/30 04:01:21;;;;;;;21.05;10.73;;;;;;;;;;5086019;28;20667;-66
2022/10/30 04:03:46;;;;;;;23.10;11.20;;;;;;;;;;5080484;28;20188;-66
2022/10/30 04:06:12;;;;;;;23.77;11.60;;;;;;;;;;5077738;28;20180;-66
2022/10/30 04:08:37;;;;;;;28.60;12.38;;;;;;;;;;5076353;28;20188;-66
2022/10/30 04:11:03;;;;;;;23.13;11.30;;;;;;;;;;5069540;28;20660;-67
2022/10/30 04:13:28;;;;;;;20.33;10.70;;;;;;;;;;5071005;28;20211;-67
2022/10/30 04:15:53;;;;;;;21.70;11.32;;;;;;;;;;5084258;28;20579;-67
2022/10/30 04:18:19;;;;;;;20.35;12.30;;;;;;;;;;5084623;28;20187;-67
2022/10/30 04:20:45;;;;;;;23.90;11.57;;;;;;;;;;5085068;28;20180;-67
2022/10/30 04:23:13;;;;;;;17.25;10.55;;;;;;;;;;5079072;28;20306;-66
2022/10/30 04:25:39;;;;;;;21.63;12.32;;;;;;;;;;5073167;28;20248;-66
2022/10/30 04:28:04;;;;;;;21.55;11.18;;;;;;;;;;5077086;28;20275;-67
2022/10/30 04:30:34;;;;;;;19.75;11.52;;;;;;;;;;5066810;28;20229;-67
2022/10/30 04:33:00;;;;;;;19.58;11.68;;;;;;;;;;5076411;28;20195;-66
2022/10/30 04:35:27;;;;;;;18.38;11.65;;;;;;;;;;5078269;28;20207;-67
2022/10/30 04:38:00;;;;;;;21.63;11.63;;;;;;;;;;5081915;28;20267;-66
2022/10/30 04:40:28;;;;;;;19.15;12.05;;;;;;;;;;5070755;28;20462;-66
2022/10/30 04:42:54;;;;;;;24.08;11.55;;;;;;;;;;5075571;28;20180;-66
2022/10/30 04:45:20;;;;;;;23.15;12.05;;;;;;;;;;5079864;28;20640;-66
2022/10/30 04:47:45;;;;;;;19.25;10.75;;;;;;;;;;5078548;28;20244;-68
2022/10/30 04:50:11;;;;;;;23.02;12.10;;;;;;;;;;5082000;28;20769;-68
2022/10/30 04:52:36;;;;;;;28.00;13.55;;;;;;;;;;5070464;28;20186;-67
2022/10/30 04:55:02;;;;;;;29.15;13.88;;;;;;;;;;5085741;28;20206;-66
2022/10/30 04:57:30;;;;;;;29.13;14.45;;;;;;;;;;5086482;28;20197;-67
2022/10/30 04:59:55;;;;;;;25.40;13.60;;;;;;;;;;5079510;28;20181;-66
2022/10/30 05:02:20;;;;;;;28.13;13.45;;;;;;;;;;5077446;28;20188;-68
2022/10/30 05:04:46;;;;;;;25.85;13.68;;;;;;;;;;5081799;28;20184;-67
2022/10/30 05:07:16;;;;;;;24.02;13.48;;;;;;;;;;5075535;28;20487;-67
2022/10/30 05:09:41;;;;;;;23.65;12.85;;;;;;;;;;5083225;28;20196;-67
2022/10/30 05:12:06;;;;;;;25.73;12.50;;;;;;;;;;5076411;28;20184;-66
2022/10/30 05:14:32;;;;;;;20.52;12.52;;;;;;;;;;5074544;28;20640;-66
2022/10/30 05:16:58;;;;;;;26.80;13.00;;;;;;;;;;5079542;28;20208;-66
2022/10/30 05:19:24;;;;;;;21.80;12.90;;;;;;;;;;5081536;28;20206;-66
2022/10/30 05:21:49;;;;;;;22.55;13.02;;;;;;;;;;5071236;28;20209;-66
2022/10/30 05:24:15;;;;;;;26.10;13.15;;;;;;;;;;5066425;28;20611;-67
2022/10/30 05:26:40;;;;;;;22.50;13.75;;;;;;;;;;5078020;28;20537;-67
2022/10/30 05:29:05;;;;;;;29.42;13.93;;;;;;;;;;5082628;28;20588;-67
2022/10/30 05:31:31;;;;;;;26.55;13.65;;;;;;;;;;5069561;28;20286;-67
2022/10/30 05:33:56;;;;;;;24.33;13.57;;;;;;;;;;5080990;28;20180;-66
2022/10/30 05:36:22;;;;;;;25.45;13.85;;;;;;;;;;5081653;28;20664;-67
2022/10/30 05:38:47;;;;;;;29.10;14.55;;;;;;;;;;5073726;28;20615;-69
2022/10/30 05:41:12;;;;;;;26.50;14.13;;;;;;;;;;5070143;28;20219;-68
2022/10/30 05:43:38;;;;;;;32.25;15.13;;;;;;;;;;5069990;28;20271;-67
2022/10/30 05:46:03;;;;;;;25.40;14.45;;;;;;;;;;5075333;28;20168;-67
2022/10/30 05:48:28;;;;;;;23.55;14.15;;;;;;;;;;5080880;28;20182;-67
2022/10/30 05:50:55;;;;;;;31.38;15.48;;;;;;;;;;5070270;28;20437;-66
2022/10/30 05:53:21;;;;;;;28.65;13.95;;;;;;;;;;5071151;28;20181;-66
2022/10/30 05:55:46;;;;;;;20.48;12.77;;;;;;;;;;5072942;28;20257;-66
2022/10/30 05:58:12;;;;;;;23.33;14.00;;;;;;;;;;5074863;28;20188;-66
2022/10/30 06:00:39;;;;;;;26.60;14.05;;;;;;;;;;5071022;28;20192;-66
2022/10/30 06:03:06;;;;;;;23.13;13.48;;;;;;;;;;5071676;28;20192;-66
2022/10/30 06:05:34;;;;;;;26.83;13.73;;;;;;;;;;5072116;28;20188;-67
2022/10/30 06:08:01;;;;;;;25.60;13.68;;;;;;;;;;5075832;28;20271;-67
2022/10/30 06:10:27;;;;;;;27.20;15.07;;;;;;;;;;5070837;28;20229;-67
2022/10/30 06:13:00;;;;;;;37.22;16.52;;;;;;;;;;5074891;28;20185;-67
2022/10/30 06:15:26;;;;;;;30.02;16.38;;;;;;;;;;5081553;28;20196;-66
2022/10/30 06:17:52;;;;;;;29.80;16.02;;;;;;;;;;5069248;28;20304;-66
2022/10/30 06:20:20;;;;;;;24.75;15.02;;;;;;;;;;5074239;28;20855;-70
2022/10/30 06:22:54;;;;;;;28.73;15.60;;;;;;;;;;5081533;28;20231;-69
2022/10/30 06:25:20;;;;;;;32.03;16.55;;;;;;;;;;5073356;28;20496;-69
2022/10/30 06:27:45;;;;;;;29.13;15.70;;;;;;;;;;5077614;28;20245;-66
2022/10/30 06:30:11;;;;;;;30.92;15.23;;;;;;;;;;5071951;28;20236;-67
2022/10/30 06:32:36;;;;;;;26.77;14.38;;;;;;;;;;5074644;28;20246;-67
2022/10/30 06:35:02;;;;;;;27.67;14.30;;;;;;;;;;5073754;28;20185;-67
2022/10/30 06:37:27;;;;;;;20.95;13.68;;;;;;;;;;5072076;28;20176;-67
2022/10/30 06:39:53;;;;;;;23.65;13.20;;;;;;;;;;5081262;28;20655;-68
2022/10/30 06:42:18;;;;;;;27.52;13.10;;;;;;;;;;5073873;28;20533;-67
2022/10/30 06:44:43;;;;;;;22.42;13.40;;;;;;;;;;5078574;28;20619;-67
2022/10/30 06:47:09;;;;;;;28.05;14.10;;;;;;;;;;5074721;28;20258;-67
2022/10/30 06:49:34;;;;;;;28.70;13.63;;;;;;;;;;5082349;28;20188;-67
2022/10/30 06:51:59;;;;;;;21.48;13.88;;;;;;;;;;5076240;28;20306;-67
2022/10/30 06:54:25;;;;;;;23.15;13.20;;;;;;;;;;5078237;28;20180;-67
2022/10/30 06:56:50;;;;;;;33.55;14.00;;;;;;;;;;5083890;28;20215;-67
2022/10/30 06:59:16;;;;;;;25.63;14.98;;;;;;;;;;5079076;28;20172;-67
2022/10/30 07:01:41;;;;;;;22.70;13.23;;;;;;;;;;5072537;28;20192;-67
2022/10/30 07:04:06;;;;;;;22.58;13.75;;;;;;;;;;5069338;28;20501;-67
2022/10/30 07:06:31;;;;;;;27.73;15.63;;;;;;;;;;5072593;28;20196;-67
2022/10/30 07:08:57;;;;;;;24.27;14.40;;;;;;;;;;5076897;28;20193;-67
2022/10/30 07:11:22;;;;;;;28.73;14.55;;;;;;;;;;5069073;28;20173;-67
2022/10/30 07:13:48;;;;;;;24.17;15.20;;;;;;;;;;5076118;28;20195;-67
2022/10/30 07:16:13;;;;;;;23.10;14.73;;;;;;;;;;5074106;28;20232;-67
2022/10/30 07:18:38;;;;;;;29.17;15.75;;;;;;;;;;5072340;28;20271;-68
2022/10/30 07:21:04;;;;;;;29.33;15.95;;;;;;;;;;5069808;28;20682;-67
2022/10/30 07:23:29;;;;;;;28.10;15.07;;;;;;;;;;5070380;28;20176;-67
2022/10/30 07:25:54;;;;;;;29.02;15.95;;;;;;;;;;5069748;28;20184;-67
2022/10/30 07:28:20;;;;;;;32.17;17.55;;;;;;;;;;5069801;28;20234;-67
2022/10/30 07:30:45;;;;;;;27.17;16.23;;;;;;;;;;5070650;28;20281;-67
2022/10/30 07:33:10;;;;;;;31.67;16.38;;;;;;;;;;5072301;28;20204;-67
2022/10/30 07:35:36;;;;;;;28.75;16.88;;;;;;;;;;5069120;28;20266;-67
2022/10/30 07:38:03;;;;;;;30.55;17.38;;;;;;;;;;5075947;28;20674;-67
2022/10/30 07:40:29;;;;;;;37.22;17.92;;;;;;;;;;5072714;28;20564;-67
2022/10/30 07:42:56;;;;;;;33.53;18.10;;;;;;;;;;5073821;28;20263;-67
2022/10/30 07:45:21;;;;;;;32.92;18.20;;;;;;;;;;5071744;28;20532;-68
2022/10/30 07:47:47;;;;;;;32.75;18.42;;;;;;;;;;5078035;28;20173;-68
2022/10/30 07:50:12;;;;;;;38.83;18.23;;;;;;;;;;5074071;28;20189;-67
2022/10/30 07:52:37;;;;;;;34.78;17.92;;;;;;;;;;5070061;28;20847;-67
2022/10/30 07:55:03;;;;;;;33.50;18.33;;;;;;;;;;5070750;28;20267;-67
2022/10/30 07:57:36;;;;;;;35.70;18.60;;;;;;;;;;5076209;28;20274;-68
2022/10/30 08:00:06;;;;;;;26.73;16.45;;;;;;;;;;5076590;28;20184;-67
2022/10/30 08:02:31;;;;;;;33.15;16.88;;;;;;;;;;5072902;28;20180;-67
2022/10/30 08:04:57;;;;;;;35.75;17.40;;;;;;;;;;5072607;28;20188;-67
2022/10/30 08:07:22;;;;;;;31.33;18.10;;;;;;;;;;5077563;28;20458;-69
2022/10/30 08:09:48;;;;;;;30.17;18.20;;;;;;;;;;5073763;28;20185;-67
2022/10/30 08:12:14;;;;;;;31.13;17.65;;;;;;;;;;5069519;28;20177;-68
2022/10/30 08:14:39;;;;;;;32.25;18.23;;;;;;;;;;5068685;28;20228;-68
2022/10/30 08:17:06;;;;;;;31.38;18.25;;;;;;;;;;5072122;28;20258;-67
2022/10/30 08:19:32;;;;;;;35.50;18.77;;;;;;;;;;5065003;28;20181;-67
2022/10/30 08:21:57;;;;;;;32.53;17.42;;;;;;;;;;5069982;28;20628;-68
2022/10/30 08:24:22;;;;;;;31.08;17.92;;;;;;;;;;5069441;28;20181;-68
2022/10/30 08:26:51;;;;;;;32.47;17.35;;;;;;;;;;5079468;28;20195;-67
2022/10/30 08:29:16;;;;;;;28.58;17.48;;;;;;;;;;5075662;28;20197;-67
2022/10/30 08:31:41;;;;;;;28.70;17.10;;;;;;;;;;5069428;28;20308;-68
2022/10/30 08:34:08;;;;;;;28.70;17.35;;;;;;;;;;5075051;28;20193;-68
2022/10/30 08:36:33;;;;;;;30.75;17.77;;;;;;;;;;5079092;28;20294;-68
2022/10/30 08:39:02;;;;;;;25.30;16.83;;;;;;;;;;5074578;28;20204;-68
2022/10/30 08:41:28;;;;;;;28.73;16.00;;;;;;;;;;5075539;28;21541;-67
2022/10/30 08:43:53;;;;;;;32.42;16.17;;;;;;;;;;5075090;28;22026;-68
2022/10/30 08:46:18;;;;;;;27.45;16.55;;;;;;;;;;5074114;28;20251;-68
2022/10/30 08:48:44;;;;;;;26.48;15.00;;;;;;;;;;5067133;28;20648;-68
2022/10/30 08:51:09;;;;;;;29.05;16.60;;;;;;;;;;5067541;28;20696;-68
2022/10/30 08:53:34;;;;;;;22.83;15.23;;;;;;;;;;5073383;28;20287;-68
2022/10/30 08:55:59;;;;;;;25.02;15.52;;;;;;;;;;5072902;28;20283;-68
2022/10/30 08:58:25;;;;;;;29.65;16.80;;;;;;;;;;5069298;28;20181;-68
2022/10/30 09:00:50;;;;;;;26.80;14.90;;;;;;;;;;5071494;28;20180;-68
2022/10/30 09:03:15;;;;;;;26.83;15.10;;;;;;;;;;5068219;28;20382;-67
2022/10/30 09:05:41;;;;;;;25.83;15.18;;;;;;;;;;5068183;28;20479;-67
2022/10/30 09:08:06;;;;;;;30.75;15.50;;;;;;;;;;5066818;28;20173;-67
2022/10/30 09:10:32;;;;;;;26.70;13.70;;;;;;;;;;5070289;28;20188;-67
2022/10/30 09:12:58;;;;;;;27.55;15.02;;;;;;;;;;5068349;28;20180;-67
2022/10/30 09:15:24;;;;;;;25.48;14.60;;;;;;;;;;5068052;28;20173;-68
2022/10/30 09:17:58;;;;;;;25.85;15.50;;;;;;;;;;5075659;28;20188;-68
2022/10/30 09:20:23;;;;;;;29.63;15.45;;;;;;;;;;5068541;28;20199;-68
2022/10/30 09:22:49;;;;;;;26.85;15.88;;;;;;;;;;5071993;28;20185;-68
2022/10/30 09:25:14;;;;;;;27.30;13.82;;;;;;;;;;5072416;28;20554;-68
2022/10/30 09:27:41;;;;;;;25.15;15.15;;;;;;;;;;5069983;28;20255;-68
2022/10/30 09:30:07;;;;;;;28.10;15.50;;;;;;;;;;5072711;28;20696;-68
2022/10/30 09:32:32;;;;;;;23.00;14.10;;;;;;;;;;5071899;28;20211;-68
2022/10/30 09:34:58;;;;;;;27.17;14.60;;;;;;;;;;5068164;28;20211;-68
2022/10/30 09:37:23;;;;;;;22.42;15.00;;;;;;;;;;5069700;28;20201;-68
2022/10/30 09:39:49;;;;;;;22.25;12.93;;;;;;;;;;5073281;28;20177;-68
2022/10/30 09:42:22;;;;;;;27.52;15.05;;;;;;;;;;5070323;28;20202;-68
2022/10/30 09:45:27;;;;;;;27.17;14.88;;;;;;;;;;5070561;28;20172;-68
2022/10/30 09:48:32;;;;;;;25.20;14.93;;;;;;;;;;5073234;28;20264;-68
2022/10/30 09:51:21;;;;;;;27.45;15.20;;;;;;;;;;5080040;28;20189;-68
2022/10/30 09:54:00;;;;;;;24.13;14.50;;;;;;;;;;5071877;28;20229;-68
2022/10/30 09:56:46;;;;;;;22.65;13.40;;;;;;;;;;5073606;28;20208;-68
2022/10/30 09:59:36;;;;;;;26.10;13.55;;;;;;;;;;5070834;28;20173;-68
2022/10/30 10:02:27;;;;;;;28.85;12.93;;;;;;;;;;5075790;28;20226;-68
2022/10/30 10:04:58;;;;;;;25.90;13.35;;;;;;;;;;5076220;28;20193;-67
2022/10/30 10:07:31;;;;;;;26.77;14.02;;;;;;;;;;5074561;28;20165;-67
2022/10/30 10:10:04;;;;;;;23.33;13.63;;;;;;;;;;5072375;28;20168;-67
2022/10/30 10:12:37;;;;;;;25.02;13.45;;;;;;;;;;5075741;28;20732;-68
2022/10/30 10:15:13;;;;;;;23.20;13.10;;;;;;;;;;5078156;28;20177;-68
2022/10/30 10:17:42;;;;;;;21.35;13.60;;;;;;;;;;5073476;28;20188;-68
2022/10/30 10:20:27;;;;;;;21.85;11.75;;;;;;;;;;5074968;28;20180;-68
2022/10/30 10:22:55;;;;;;;24.73;13.63;;;;;;;;;;5075570;28;20715;-67
2022/10/30 10:25:22;;;;;;;20.52;12.07;;;;;;;;;;5077436;28;20172;-67
2022/10/30 10:28:12;;;;;;;23.13;13.40;;;;;;;;;;5074966;28;20172;-67
2022/10/30 10:30:45;;;;;;;21.25;12.98;;;;;;;;;;5073381;28;20216;-67
2022/10/30 10:33:32;;;;;;;28.75;13.98;;;;;;;;;;5070752;28;20287;-67
2022/10/30 10:36:18;;;;;;;22.17;13.75;;;;;;;;;;5071200;28;20566;-67
2022/10/30 10:38:47;;;;;;;28.25;13.73;;;;;;;;;;5072474;28;20191;-68
2022/10/30 10:41:21;;;;;;;25.88;15.35;;;;;;;;;;5074217;28;20188;-68
2022/10/30 10:44:16;;;;;;;25.38;13.07;;;;;;;;;;5074862;28;20467;-68
2022/10/30 10:47:00;;;;;;;30.33;13.40;;;;;;;;;;5073837;28;20188;-68
2022/10/30 10:50:00;;;;;;;29.83;13.35;;;;;;;;;;5074278;28;20593;-67
2022/10/30 10:52:39;;;;;;;30.73;12.80;;;;;;;;;;5077454;28;20224;-68
2022/10/30 10:55:13;;;;;;;24.13;12.57;;;;;;;;;;5077542;28;20172;-67
2022/10/30 10:57:41;;;;;;;21.15;11.35;;;;;;;;;;5070429;28;20192;-67
2022/10/30 11:00:18;;;;;;;30.70;13.75;;;;;;;;;;5077446;28;20180;-67
2022/10/30 11:02:59;;;;;;;22.80;11.73;;;;;;;;;;5070678;28;20196;-67
2022/10/30 11:05:49;;;;;;;19.70;12.02;;;;;;;;;;5070283;28;20192;-68
2022/10/30 11:08:21;;;;;;;19.20;11.05;;;;;;;;;;5071701;28;20835;-66
2022/10/30 11:10:52;;;;;;;24.80;11.20;;;;;;;;;;5075937;28;20177;-67
2022/10/30 11:13:17;;;;;;;26.55;11.45;;;;;;;;;;5071192;28;20200;-67
2022/10/30 11:15:51;;;;;;;26.52;11.38;;;;;;;;;;5073953;28;20285;-67
2022/10/30 11:18:16;;;;;;;20.85;10.73;;;;;;;;;;5072987;28;20169;-67
2022/10/30 11:21:04;;;;;;;20.63;11.52;;;;;;;;;;5072894;28;20185;-67
2022/10/30 11:23:46;;;;;;;19.65;10.63;;;;;;;;;;5072643;28;20177;-67
2022/10/30 11:26:19;;;;;;;20.08;11.07;;;;;;;;;;5070904;28;20201;-67
2022/10/30 11:28:49;;;;;;;17.08;10.63;;;;;;;;;;5072918;28;20645;-68
2022/10/30 11:31:33;;;;;;;25.80;11.77;;;;;;;;;;5074079;28;20252;-67
2022/10/30 11:34:17;;;;;;;28.90;11.45;;;;;;;;;;5072861;28;20184;-67
2022/10/30 11:36:47;;;;;;;21.27;11.95;;;;;;;;;;5076088;28;20204;-68
2022/10/30 11:39:24;;;;;;;25.63;12.55;;;;;;;;;;5069955;28;20176;-67
2022/10/30 11:41:57;;;;;;;22.13;12.00;;;;;;;;;;5075460;28;20463;-67
2022/10/30 11:44:27;;;;;;;26.35;12.43;;;;;;;;;;5074681;28;20245;-68
2022/10/30 11:46:53;;;;;;;25.08;12.18;;;;;;;;;;5080166;28;20194;-67
2022/10/30 11:49:41;;;;;;;26.33;11.98;;;;;;;;;;5069910;28;21323;-67
2022/10/30 11:52:07;;;;;;;25.95;11.77;;;;;;;;;;5076049;28;20193;-68
2022/10/30 11:54:40;;;;;;;24.55;12.88;;;;;;;;;;5074194;28;20188;-67
2022/10/30 11:57:21;;;;;;;24.33;11.38;;;;;;;;;;5070749;28;20212;-67
2022/10/30 11:59:47;;;;;;;21.65;11.27;;;;;;;;;;5076801;28;20215;-67
2022/10/30 12:02:28;;;;;;;24.65;11.43;;;;;;;;;;5073440;28;20253;-67
2022/10/30 12:04:55;;;;;;;24.40;11.20;;;;;;;;;;5079093;28;20168;-67
2022/10/30 12:07:24;;;;;;;30.48;11.55;;;;;;;;;;5069091;28;20211;-67
2022/10/30 12:09:49;;;;;;;26.38;11.20;;;;;;;;;;5075597;28;20203;-67
2022/10/30 12:12:22;;;;;;;21.67;10.32;;;;;;;;;;5070365;28;20192;-67
2022/10/30 12:14:48;;;;;;;21.92;10.95;;;;;;;;;;5075855;28;20790;-67
2022/10/30 12:17:16;;;;;;;31.00;12.27;;;;;;;;;;5073853;28;20247;-68
2022/10/30 12:19:52;;;;;;;22.40;11.25;;;;;;;;;;5071099;28;20202;-67
2022/10/30 12:22:31;;;;;;;24.00;9.88;;;;;;;;;;5070665;28;20555;-67
2022/10/30 12:24:59;;;;;;;21.50;10.15;;;;;;;;;;5078734;28;20188;-67
2022/10/30 12:27:25;;;;;;;24.63;10.75;;;;;;;;;;5074396;28;20226;-67
2022/10/30 12:30:15;;;;;;;21.27;9.95;;;;;;;;;;5075358;28;20169;-67
2022/10/30 12:32:47;;;;;;;22.98;10.10;;;;;;;;;;5080127;28;20207;-67
2022/10/30 12:35:43;;;;;;;20.63;9.43;;;;;;;;;;5071632;28;20318;-67
2022/10/30 12:38:17;;;;;;;21.63;10.63;;;;;;;;;;5067514;28;20503;-68
2022/10/30 12:40:57;;;;;;;24.65;10.30;;;;;;;;;;5068889;28;20194;-68
2022/10/30 12:43:26;;;;;;;17.23;9.45;;;;;;;;;;5070796;28;20177;-68
2022/10/30 12:45:59;;;;;;;21.25;10.13;;;;;;;;;;5069150;28;20172;-68
2022/10/30 12:48:36;;;;;;;21.27;10.50;;;;;;;;;;5069851;28;20181;-68
2022/10/30 12:51:25;;;;;;;20.27;9.35;;;;;;;;;;5073689;28;20184;-68
2022/10/30 12:54:01;;;;;;;19.83;10.00;;;;;;;;;;5068806;28;20486;-68
2022/10/30 12:56:38;;;;;;;22.83;9.68;;;;;;;;;;5074515;28;20334;-68
2022/10/30 12:59:42;;;;;;;18.02;10.50;;;;;;;;;;5076599;28;20180;-68
2022/10/30 13:02:31;;;;;;;24.58;9.88;;;;;;;;;;5071890;28;20299;-67
2022/10/30 13:05:01;;;;;;;23.38;9.10;;;;;;;;;;5073932;28;20181;-67
2022/10/30 13:07:40;;;;;;;20.00;9.38;;;;;;;;;;5070333;28;20197;-67
2022/10/30 13:10:33;;;;;;;21.67;9.32;;;;;;;;;;5075497;28;20181;-68
2022/10/30 13:13:09;;;;;;;21.83;10.05;;;;;;;;;;5075214;28;20180;-68
2022/10/30 13:15:40;;;;;;;21.35;10.13;;;;;;;;;;5073287;28;20280;-68
2022/10/30 13:18:25;;;;;;;19.95;9.02;;;;;;;;;;5069972;28;20556;-68
2022/10/30 13:21:07;;;;;;;19.63;9.52;;;;;;;;;;5067257;28;20475;-68
2022/10/30 13:24:13;;;;;;;19.75;9.15;;;;;;;;;;5072992;28;20184;-68
2022/10/30 13:27:03;;;;;;;22.60;9.90;;;;;;;;;;5040418;28;20266;-67
2022/10/30 13:29:53;;;;;;;24.80;10.73;;;;;;;;;;5069846;28;20188;-68
2022/10/30 13:32:44;;;;;;;22.55;9.73;;;;;;;;;;5070271;28;20718;-67
2022/10/30 13:35:26;;;;;;;23.25;10.48;;;;;;;;;;5069401;28;20168;-67
2022/10/30 13:37:57;;;;;;;22.30;10.48;;;;;;;;;;5067767;28;20208;-67
2022/10/30 13:40:39;;;;;;;22.90;10.52;;;;;;;;;;5073567;28;20187;-68
2022/10/30 13:43:35;;;;;;;19.85;10.05;;;;;;;;;;5066972;28;20180;-68
2022/10/30 13:46:09;;;;;;;18.63;9.18;;;;;;;;;;5072645;28;20211;-69
2022/10/30 13:49:05;;;;;;;26.58;10.38;;;;;;;;;;5067270;28;20212;-68
2022/10/30 13:51:55;;;;;;;23.08;9.75;;;;;;;;;;5074153;28;20176;-68
2022/10/30 13:54:30;;;;;;;18.25;10.27;;;;;;;;;;5073851;28;20493;-67
2022/10/30 13:57:06;;;;;;;28.73;10.20;;;;;;;;;;5073561;28;20216;-67
2022/10/30 13:59:54;;;;;;;25.73;10.63;;;;;;;;;;5070327;28;20184;-67
2022/10/30 14:02:41;;;;;;;22.23;10.55;;;;;;;;;;5073022;28;20868;-67
2022/10/30 14:05:38;;;;;;;28.30;11.27;;;;;;;;;;5075246;28;20212;-67
2022/10/30 14:08:25;;;;;;;18.50;10.50;;;;;;;;;;5071367;28;20177;-67
2022/10/30 14:10:56;;;;;;;19.17;10.25;;;;;;;;;;5066658;28;20666;-67
2022/10/30 14:13:27;;;;;;;20.80;10.38;;;;;;;;;;5070501;28;20194;-68
2022/10/30 14:16:01;;;;;;;25.58;11.00;;;;;;;;;;5071093;28;20563;-68
2022/10/30 14:18:41;;;;;;;26.77;10.70;;;;;;;;;;5076708;28;20500;-68
2022/10/30 14:21:36;;;;;;;21.58;10.15;;;;;;;;;;5069570;28;20177;-68
2022/10/30 14:24:04;;;;;;;25.00;10.10;;;;;;;;;;5070485;28;20173;-68
2022/10/30 14:26:29;;;;;;;19.92;8.70;;;;;;;;;;5076429;28;20222;-68
2022/10/30 14:28:55;;;;;;;26.23;10.60;;;;;;;;;;5074294;28;20280;-68
2022/10/30 14:31:35;;;;;;;23.67;9.57;;;;;;;;;;5070995;28;20238;-68
2022/10/30 14:34:01;;;;;;;24.13;9.57;;;;;;;;;;5071722;28;20237;-68
2022/10/30 14:36:32;;;;;;;20.70;9.25;;;;;;;;;;5068204;28;20201;-68
2022/10/30 14:39:20;;;;;;;22.27;9.57;;;;;;;;;;5069499;28;20769;-68
2022/10/30 14:42:01;;;;;;;19.38;9.45;;;;;;;;;;5071553;28;20188;-68
2022/10/30 14:44:52;;;;;;;23.15;9.70;;;;;;;;;;5069396;28;20185;-68